Terminal Aerodrome Forecast
Issued by NWS Bismarck, ND

Home | Current Version | Previous Version | Text Only | Print | Product List | Glossary Off
Versions: 1 2 3 4 5 6 7 8 9 10 11 12

000
FTUS43 KBIS 170530
TAFBIS
TAF
KBIS 170530Z 1706/1806 00000KT P6SM SCT150
     FM171000 VRB03KT P6SM VCSH SCT090 BKN150
     FM171400 00000KT P6SM FEW200
     FM171700 20005KT P6SM FEW200
     FM180000 19007KT P6SM VCTS SCT090CB=

USA.gov is the U.S. government's official web portal to all federal, state and local government web resources and services.